createdAt,value
2019-02-05T00:01:25.201Z,27.13
2019-02-05T00:03:54.708Z,28.20
2019-02-05T00:06:24.350Z,23.83
2019-02-05T00:08:53.884Z,23.60
2019-02-05T00:11:23.340Z,27.80
2019-02-05T00:13:52.940Z,28.70
2019-02-05T00:16:22.517Z,29.87
2019-02-05T00:18:52.042Z,28.13
2019-02-05T00:21:21.609Z,30.10
2019-02-05T00:23:51.112Z,27.77
2019-02-05T00:26:20.594Z,27.73
2019-02-05T00:28:50.238Z,34.03
2019-02-05T00:31:19.724Z,30.27
2019-02-05T00:33:49.532Z,29.80
2019-02-05T00:36:18.993Z,25.33
2019-02-05T00:38:48.474Z,23.77
2019-02-05T00:41:18.165Z,26.13
2019-02-05T00:43:47.618Z,28.33
2019-02-05T00:46:17.104Z,26.90
2019-02-05T00:48:46.641Z,28.67
2019-02-05T00:51:16.146Z,28.63
2019-02-05T00:53:45.682Z,24.27
2019-02-05T00:56:17.757Z,27.90
2019-02-05T00:58:46.350Z,33.40
2019-02-05T01:01:15.832Z,28.77
2019-02-05T01:03:45.467Z,25.50
2019-02-05T01:06:15.233Z,25.37
2019-02-05T01:08:44.724Z,25.93
2019-02-05T01:11:14.258Z,25.43
2019-02-05T01:13:44.084Z,31.80
2019-02-05T01:16:13.562Z,37.17
2019-02-05T01:18:43.479Z,25.77
2019-02-05T01:21:13.057Z,23.37
2019-02-05T01:23:42.624Z,26.33
2019-02-05T01:26:12.093Z,23.37
2019-02-05T01:28:41.614Z,23.47
2019-02-05T01:31:11.091Z,21.07
2019-02-05T01:33:40.621Z,21.47
2019-02-05T01:36:10.100Z,26.30
2019-02-05T01:38:39.591Z,21.37
2019-02-05T01:41:09.501Z,20.97
2019-02-05T01:43:38.981Z,18.47
2019-02-05T01:46:08.869Z,19.63
2019-02-05T01:48:38.375Z,17.87
2019-02-05T01:51:08.245Z,24.13
2019-02-05T01:53:37.725Z,26.57
2019-02-05T01:56:07.252Z,23.73
2019-02-05T01:58:36.827Z,22.07
2019-02-05T02:01:07.079Z,21.37
2019-02-05T02:03:36.573Z,23.00
2019-02-05T02:06:06.141Z,28.50
2019-02-05T02:08:35.703Z,20.60
2019-02-05T02:11:05.225Z,19.10
2019-02-05T02:13:35.339Z,20.77
2019-02-05T02:16:05.341Z,21.93
2019-02-05T02:18:34.833Z,19.37
2019-02-05T02:21:04.494Z,19.90
2019-02-05T02:23:34.087Z,20.13
2019-02-05T02:26:03.589Z,20.83
2019-02-05T02:28:33.426Z,25.07
2019-02-05T02:31:03.361Z,19.00
2019-02-05T02:33:32.843Z,23.00
2019-02-05T02:36:02.344Z,20.07
2019-02-05T02:38:31.915Z,19.77
2019-02-05T02:41:01.523Z,23.37
2019-02-05T02:43:31.048Z,25.23
2019-02-05T02:46:00.954Z,22.53
2019-02-05T02:48:30.451Z,21.27
2019-02-05T02:50:59.965Z,24.67
2019-02-05T02:53:29.473Z,25.83
2019-02-05T02:55:58.954Z,25.73
2019-02-05T02:58:28.424Z,27.97
2019-02-05T03:00:58.147Z,28.30
2019-02-05T03:03:27.653Z,31.20
2019-02-05T03:05:57.386Z,27.97
2019-02-05T03:08:26.878Z,32.97
2019-02-05T03:10:56.377Z,34.23
2019-02-05T03:13:25.995Z,32.67
2019-02-05T03:15:55.838Z,28.90
2019-02-05T03:18:25.619Z,29.90
2019-02-05T03:20:55.095Z,28.87
2019-02-05T03:23:24.652Z,28.27
2019-02-05T03:25:54.219Z,31.03
2019-02-05T03:28:23.703Z,30.63
2019-02-05T03:30:53.243Z,31.57
2019-02-05T03:33:23.301Z,31.67
2019-02-05T03:35:53.107Z,31.40
2019-02-05T03:38:22.594Z,31.07
2019-02-05T03:41:02.903Z,27.10
2019-02-05T03:43:32.678Z,24.53
2019-02-05T03:46:03.953Z,27.30
2019-02-05T03:48:34.865Z,27.40
2019-02-05T03:51:15.397Z,27.97
2019-02-05T03:53:49.177Z,25.97
2019-02-05T03:56:53.250Z,27.17
2019-02-05T04:00:03.754Z,26.50
2019-02-05T04:03:14.341Z,30.43
2019-02-05T04:06:25.097Z,27.17
2019-02-05T04:09:13.401Z,24.73
2019-02-05T04:12:13.118Z,29.03
2019-02-05T04:15:35.763Z,26.70
2019-02-05T04:18:38.625Z,30.20
2019-02-05T04:21:44.801Z,31.27
2019-02-05T04:24:45.344Z,27.97
2019-02-05T04:27:44.975Z,27.63
2019-02-05T04:30:44.887Z,26.00
2019-02-05T04:33:42.788Z,33.80
2019-02-05T04:36:38.993Z,31.70
2019-02-05T04:39:53.805Z,29.90
2019-02-05T04:43:04.037Z,31.33
2019-02-05T04:46:16.017Z,34.90
2019-02-05T04:49:22.389Z,31.47
2019-02-05T04:52:27.776Z,34.00
2019-02-05T04:55:44.021Z,36.00
2019-02-05T04:58:45.203Z,29.07
2019-02-05T05:01:44.835Z,31.53
2019-02-05T05:04:45.939Z,30.30
2019-02-05T05:07:26.325Z,29.43
2019-02-05T05:09:58.021Z,25.40
2019-02-05T05:12:28.889Z,29.80
2019-02-05T05:14:58.583Z,30.10
2019-02-05T05:17:28.077Z,28.77
2019-02-05T05:19:57.740Z,27.53
2019-02-05T05:22:27.333Z,25.67
2019-02-05T05:24:56.831Z,24.10
2019-02-05T05:27:27.226Z,27.50
2019-02-05T05:29:56.988Z,28.50
2019-02-05T05:32:26.843Z,29.10
2019-02-05T05:34:56.414Z,25.37
2019-02-05T05:37:25.878Z,28.73
2019-02-05T05:39:55.701Z,26.63
2019-02-05T05:42:26.875Z,24.50
2019-02-05T05:44:56.387Z,26.63
2019-02-05T05:47:25.885Z,23.00
2019-02-05T05:49:55.446Z,26.33
2019-02-05T05:52:24.939Z,24.30
2019-02-05T05:54:54.426Z,24.20
2019-02-05T05:57:24.100Z,24.83
2019-02-05T05:59:53.804Z,25.63
2019-02-05T06:02:23.394Z,24.40
2019-02-05T06:04:52.899Z,20.47
2019-02-05T06:07:22.400Z,25.17
2019-02-05T06:09:52.035Z,25.30
2019-02-05T06:12:21.537Z,25.27
2019-02-05T06:14:51.528Z,22.67
2019-02-05T06:17:20.977Z,22.43
2019-02-05T06:19:50.466Z,21.77
2019-02-05T06:22:20.217Z,24.07
2019-02-05T06:24:49.694Z,23.10
2019-02-05T06:27:19.186Z,21.97
2019-02-05T06:29:49.001Z,19.27
2019-02-05T06:32:18.442Z,19.03
2019-02-05T06:34:48.104Z,22.80
2019-02-05T06:37:17.617Z,18.67
2019-02-05T06:39:47.071Z,19.47
2019-02-05T06:42:16.539Z,20.37
2019-02-05T06:44:46.409Z,23.73
2019-02-05T06:47:15.942Z,16.43
2019-02-05T06:49:45.613Z,20.40
2019-02-05T06:52:15.084Z,21.73
2019-02-05T06:54:44.889Z,20.67
2019-02-05T06:57:14.381Z,22.17
2019-02-05T06:59:43.861Z,21.57
2019-02-05T07:02:13.546Z,23.80
2019-02-05T07:04:43.047Z,25.23
2019-02-05T07:07:12.484Z,21.23
2019-02-05T07:09:42.285Z,24.27
2019-02-05T07:12:11.772Z,22.63
2019-02-05T07:14:41.512Z,22.00
2019-02-05T07:17:11.189Z,23.43
2019-02-05T07:19:40.730Z,21.40
2019-02-05T07:22:10.291Z,22.30
2019-02-05T07:24:39.758Z,22.73
2019-02-05T07:27:09.241Z,27.13
2019-02-05T07:29:38.861Z,23.97
2019-02-05T07:32:08.669Z,29.23
2019-02-05T07:34:38.313Z,29.97
2019-02-05T07:37:07.777Z,30.80
2019-02-05T07:39:37.297Z,27.90
2019-02-05T07:42:06.982Z,28.37
2019-02-05T07:44:36.463Z,26.77
2019-02-05T07:47:05.973Z,26.37
2019-02-05T07:49:35.656Z,25.00
2019-02-05T07:52:05.162Z,28.77
2019-02-05T07:54:34.674Z,26.87
2019-02-05T07:57:04.209Z,30.63
2019-02-05T07:59:33.701Z,25.20
2019-02-05T08:02:03.196Z,27.03
2019-02-05T08:04:32.984Z,23.97
2019-02-05T08:07:03.192Z,25.47
2019-02-05T08:09:32.656Z,24.80
2019-02-05T08:12:02.130Z,28.30
2019-02-05T08:14:31.829Z,25.13
2019-02-05T08:17:01.347Z,25.80
2019-02-05T08:19:31.217Z,26.33
2019-02-05T08:22:00.720Z,21.07
2019-02-05T08:24:30.190Z,23.63
2019-02-05T08:26:59.812Z,24.23
2019-02-05T08:29:29.314Z,24.27
2019-02-05T08:31:58.851Z,26.37
2019-02-05T08:34:28.494Z,26.23
2019-02-05T08:36:58.054Z,25.90
2019-02-05T08:39:27.726Z,30.80
2019-02-05T08:41:57.496Z,40.80
2019-02-05T08:44:27.024Z,38.00
2019-02-05T08:46:56.506Z,44.63
2019-02-05T08:49:25.993Z,31.77
2019-02-05T08:51:55.526Z,33.37
2019-02-05T08:54:25.162Z,38.40
2019-02-05T08:56:54.635Z,30.10
2019-02-05T08:59:24.118Z,30.80
2019-02-05T09:01:53.727Z,27.70
2019-02-05T09:04:23.264Z,29.77
2019-02-05T09:06:52.773Z,36.57
2019-02-05T09:09:22.418Z,26.47
2019-02-05T09:11:51.887Z,30.60
2019-02-05T09:14:21.905Z,28.63
2019-02-05T09:16:51.490Z,25.20
2019-02-05T09:19:20.949Z,26.93
2019-02-05T09:21:50.495Z,31.03
2019-02-05T09:24:19.983Z,34.97
2019-02-05T09:26:49.452Z,26.47
2019-02-05T09:29:19.143Z,31.67
2019-02-05T09:31:48.613Z,26.67
2019-02-05T09:34:18.123Z,27.97
2019-02-05T09:36:47.812Z,38.57
2019-02-05T09:39:17.293Z,35.80
2019-02-05T09:41:46.866Z,30.37
2019-02-05T09:44:16.541Z,26.33
2019-02-05T09:46:46.645Z,28.47
2019-02-05T09:49:16.123Z,28.83
2019-02-05T09:51:45.631Z,24.67
2019-02-05T09:54:15.625Z,29.67
2019-02-05T09:56:45.101Z,27.33
2019-02-05T09:59:14.657Z,21.43
2019-02-05T10:01:44.179Z,24.23
2019-02-05T10:04:13.657Z,25.77
2019-02-05T10:06:43.238Z,24.00
2019-02-05T10:09:12.758Z,21.60
2019-02-05T10:11:42.216Z,19.47
2019-02-05T10:14:11.994Z,21.77
2019-02-05T10:16:41.490Z,24.93
2019-02-05T10:19:11.415Z,24.67
2019-02-05T10:21:40.900Z,24.80
2019-02-05T10:24:10.440Z,25.07
2019-02-05T10:26:40.033Z,29.50
2019-02-05T10:29:09.575Z,25.63
2019-02-05T10:31:39.368Z,23.60
2019-02-05T10:34:08.970Z,25.40
2019-02-05T10:36:38.491Z,29.13
2019-02-05T10:39:10.256Z,31.20
2019-02-05T10:41:39.834Z,31.43
2019-02-05T10:44:09.474Z,29.07
2019-02-05T10:46:38.948Z,31.47
2019-02-05T10:49:08.461Z,30.47
2019-02-05T10:51:38.110Z,24.70
2019-02-05T10:54:07.666Z,27.27
2019-02-05T10:56:37.160Z,23.43
2019-02-05T10:59:06.772Z,21.40
2019-02-05T11:01:36.360Z,26.17
2019-02-05T11:04:06.142Z,24.80
2019-02-05T11:06:36.306Z,24.63
2019-02-05T11:09:09.418Z,27.03
2019-02-05T11:11:38.918Z,27.83
2019-02-05T11:14:08.430Z,27.13
2019-02-05T11:16:37.968Z,25.43
2019-02-05T11:19:07.468Z,25.20
2019-02-05T11:21:37.594Z,21.63
2019-02-05T11:24:07.243Z,26.50
2019-02-05T11:26:36.984Z,29.97
2019-02-05T11:29:06.450Z,27.87
2019-02-05T11:31:35.963Z,30.73
2019-02-05T11:34:05.999Z,24.37
2019-02-05T11:36:35.471Z,30.80
2019-02-05T11:39:09.921Z,27.23
2019-02-05T11:41:39.395Z,30.87
2019-02-05T11:44:08.891Z,22.83
2019-02-05T11:46:38.610Z,23.67
2019-02-05T11:49:08.138Z,27.27
2019-02-05T11:51:37.597Z,23.67
2019-02-05T11:54:07.259Z,27.53
2019-02-05T11:56:36.756Z,31.00
2019-02-05T11:59:06.380Z,26.03
2019-02-05T12:01:39.078Z,28.07
2019-02-05T12:04:07.945Z,25.33
2019-02-05T12:06:37.442Z,22.63
2019-02-05T12:09:21.305Z,22.13
2019-02-05T12:11:50.779Z,24.67
2019-02-05T12:14:20.595Z,24.80
2019-02-05T12:16:51.067Z,24.93
2019-02-05T12:19:20.597Z,26.70
2019-02-05T12:21:50.376Z,23.10
2019-02-05T12:24:19.879Z,22.73
2019-02-05T12:26:49.536Z,23.73
2019-02-05T12:29:19.039Z,23.80
2019-02-05T12:31:48.763Z,31.40
2019-02-05T12:34:18.225Z,25.60
2019-02-05T12:36:47.771Z,23.03
2019-02-05T12:39:20.888Z,25.40
2019-02-05T12:41:51.252Z,28.93
2019-02-05T12:44:21.231Z,32.43
2019-02-05T12:46:51.113Z,31.67
2019-02-05T12:49:20.631Z,30.77
2019-02-05T12:51:50.144Z,24.40
2019-02-05T12:54:19.714Z,29.73
2019-02-05T12:56:49.197Z,29.40
2019-02-05T12:59:18.771Z,27.20
2019-02-05T13:01:48.423Z,29.93
2019-02-05T13:04:17.919Z,28.10
2019-02-05T13:06:47.784Z,30.23
2019-02-05T13:09:17.304Z,26.30
2019-02-05T13:11:46.873Z,31.20
2019-02-05T13:14:16.509Z,35.93
2019-02-05T13:16:45.978Z,29.00
2019-02-05T13:19:15.477Z,33.70
2019-02-05T13:21:45.050Z,30.73
2019-02-05T13:24:16.532Z,28.43
2019-02-05T13:26:45.734Z,29.20
2019-02-05T13:29:15.222Z,26.53
2019-02-05T13:31:44.851Z,35.47
2019-02-05T13:34:14.379Z,37.27
2019-02-05T13:36:43.979Z,37.83
2019-02-05T13:39:13.940Z,38.90
2019-02-05T13:41:43.500Z,40.07
2019-02-05T13:44:13.046Z,34.67
2019-02-05T13:46:42.591Z,35.47
2019-02-05T13:49:12.578Z,49.17
2019-02-05T13:51:42.130Z,47.37
2019-02-05T13:54:11.739Z,29.30
2019-02-05T13:56:41.246Z,40.77
2019-02-05T13:59:10.722Z,25.50
2019-02-05T14:01:40.535Z,35.23
2019-02-05T14:04:09.982Z,32.73
2019-02-05T14:06:39.454Z,35.00
2019-02-05T14:09:13.556Z,34.40
2019-02-05T14:11:43.147Z,32.77
2019-02-05T14:14:12.630Z,35.10
2019-02-05T14:16:42.221Z,29.47
2019-02-05T14:19:11.766Z,28.83
2019-02-05T14:21:41.212Z,31.50
2019-02-05T14:24:10.721Z,32.00
2019-02-05T14:26:40.457Z,36.10
2019-02-05T14:29:09.920Z,32.03
2019-02-05T14:31:39.453Z,32.03
2019-02-05T14:34:09.092Z,32.73
2019-02-05T14:36:38.562Z,33.07
2019-02-05T14:39:10.387Z,29.37
2019-02-05T14:41:39.902Z,32.83
2019-02-05T14:44:09.471Z,29.67
2019-02-05T14:46:39.159Z,32.77
2019-02-05T14:49:09.257Z,38.63
2019-02-05T14:51:38.713Z,40.17
2019-02-05T14:54:08.198Z,30.90
2019-02-05T14:56:37.861Z,30.83
2019-02-05T14:59:08.683Z,28.27
2019-02-05T15:01:43.287Z,30.23
2019-02-05T15:04:09.597Z,28.87
2019-02-05T15:06:39.087Z,31.97
2019-02-05T15:09:09.271Z,38.37
2019-02-05T15:11:38.795Z,34.87
2019-02-05T15:14:08.663Z,37.03
2019-02-05T15:16:38.219Z,35.73
2019-02-05T15:19:07.740Z,36.17
2019-02-05T15:21:37.241Z,34.90
2019-02-05T15:24:06.862Z,32.77
2019-02-05T15:26:36.420Z,34.13
2019-02-05T15:29:06.026Z,33.07
2019-02-05T15:31:35.901Z,37.00
2019-02-05T15:34:17.579Z,33.27
2019-02-05T15:36:49.192Z,31.63
2019-02-05T15:39:18.710Z,37.50
2019-02-05T15:41:48.286Z,35.30
2019-02-05T15:44:17.780Z,31.40
2019-02-05T15:46:47.297Z,38.87
2019-02-05T15:49:17.200Z,32.13
2019-02-05T15:51:46.671Z,38.17
2019-02-05T15:54:16.329Z,38.60
2019-02-05T15:56:45.838Z,38.47
2019-02-05T15:59:15.313Z,41.20
2019-02-05T16:01:45.128Z,43.63
2019-02-05T16:04:14.626Z,49.17
2019-02-05T16:06:44.098Z,47.33
2019-02-05T16:09:13.935Z,53.70
2019-02-05T16:11:43.404Z,54.53
2019-02-05T16:14:13.069Z,50.13
2019-02-05T16:16:42.593Z,55.53
2019-02-05T16:19:12.077Z,52.53
2019-02-05T16:21:42.104Z,46.17
2019-02-05T16:24:11.655Z,56.97
2019-02-05T16:26:41.160Z,54.53
2019-02-05T16:29:12.335Z,58.43
2019-02-05T16:31:41.831Z,59.17
2019-02-05T16:34:11.327Z,65.70
2019-02-05T16:36:40.940Z,75.37
2019-02-05T16:39:11.713Z,68.10
2019-02-05T16:41:41.310Z,111.30
2019-02-05T16:44:10.818Z,88.27
2019-02-05T16:46:40.294Z,97.40
2019-02-05T16:49:10.157Z,72.70
2019-02-05T16:51:39.627Z,65.07
2019-02-05T16:54:09.149Z,64.93
2019-02-05T16:56:39.041Z,52.30
2019-02-05T16:59:08.530Z,67.23
2019-02-05T17:01:38.652Z,67.47
2019-02-05T17:04:08.188Z,77.60
2019-02-05T17:06:37.703Z,51.60
2019-02-05T17:09:14.435Z,63.73
2019-02-05T17:11:43.904Z,69.53
2019-02-05T17:14:13.430Z,63.00
2019-02-05T17:16:42.987Z,68.17
2019-02-05T17:19:12.506Z,60.47
2019-02-05T17:21:42.028Z,70.70
2019-02-05T17:24:11.876Z,61.47
2019-02-05T17:26:41.638Z,60.67
2019-02-05T17:29:11.500Z,76.10
2019-02-05T17:31:41.260Z,74.67
2019-02-05T17:34:10.802Z,83.50
2019-02-05T17:36:40.343Z,72.23
2019-02-05T17:39:12.125Z,52.67
2019-02-05T17:41:41.635Z,58.13
2019-02-05T17:44:11.147Z,49.63
2019-02-05T17:46:40.642Z,42.83
2019-02-05T17:49:12.096Z,50.10
2019-02-05T17:51:41.309Z,58.70
2019-02-05T17:54:11.281Z,66.67
2019-02-05T17:56:40.862Z,74.87
2019-02-05T17:59:10.570Z,69.17
2019-02-05T18:01:40.111Z,66.13
2019-02-05T18:04:09.602Z,62.10
2019-02-05T18:06:39.262Z,57.30
2019-02-05T18:09:09.592Z,54.53
2019-02-05T18:11:39.103Z,67.83
2019-02-05T18:14:08.883Z,67.80
2019-02-05T18:16:38.378Z,62.60
2019-02-05T18:19:07.865Z,75.33
2019-02-05T18:21:37.755Z,63.67
2019-02-05T18:24:07.597Z,66.03
2019-02-05T18:26:37.114Z,66.13
2019-02-05T18:29:06.709Z,64.80
2019-02-05T18:31:37.868Z,67.73
2019-02-05T18:34:07.626Z,81.87
2019-02-05T18:36:37.225Z,84.27
2019-02-05T18:39:09.516Z,86.67
2019-02-05T18:41:39.123Z,90.13
2019-02-05T18:44:08.593Z,93.50
2019-02-05T18:46:38.089Z,81.53
2019-02-05T18:49:08.426Z,84.67
2019-02-05T18:51:38.257Z,88.90
2019-02-05T18:54:07.746Z,78.57
2019-02-05T18:56:37.419Z,74.37
2019-02-05T18:59:06.961Z,85.07
2019-02-05T19:01:36.537Z,68.93
2019-02-05T19:04:06.397Z,81.13
2019-02-05T19:06:36.231Z,90.97
2019-02-05T19:09:12.427Z,84.83
2019-02-05T19:11:41.966Z,93.27
2019-02-05T19:14:11.494Z,88.77
2019-02-05T19:16:41.037Z,95.27
2019-02-05T19:19:14.986Z,90.37
2019-02-05T19:21:42.021Z,96.97
2019-02-05T19:24:30.545Z,89.13
2019-02-05T19:27:00.325Z,83.63
2019-02-05T19:29:29.822Z,89.67
2019-02-05T19:31:59.565Z,97.57
2019-02-05T19:34:29.086Z,84.70
2019-02-05T19:36:58.607Z,93.43
2019-02-05T19:39:28.318Z,79.23
2019-02-05T19:41:57.919Z,110.30
2019-02-05T19:44:27.953Z,96.17
2019-02-05T19:47:09.454Z,98.87
2019-02-05T19:49:48.318Z,87.00
2019-02-05T19:52:17.863Z,102.23
2019-02-05T19:54:47.380Z,97.03
2019-02-05T19:57:16.945Z,98.97
2019-02-05T19:59:50.432Z,91.17
2019-02-05T20:02:21.343Z,88.90
2019-02-05T20:04:50.919Z,82.73
2019-02-05T20:07:20.731Z,92.37
2019-02-05T20:09:50.689Z,86.67
2019-02-05T20:12:22.024Z,87.13
2019-02-05T20:14:51.600Z,89.87
2019-02-05T20:17:23.430Z,89.13
2019-02-05T20:19:52.943Z,86.87
2019-02-05T20:22:22.429Z,95.23
2019-02-05T20:24:52.367Z,95.03
2019-02-05T20:27:23.501Z,85.47
2019-02-05T20:29:53.336Z,100.57
2019-02-05T20:32:22.881Z,94.63
2019-02-05T20:34:52.415Z,87.80
2019-02-05T20:37:22.034Z,91.50
2019-02-05T20:39:51.553Z,84.47
2019-02-05T20:42:23.585Z,91.23
2019-02-05T20:44:53.241Z,82.30
2019-02-05T20:47:23.044Z,84.07
2019-02-05T20:49:52.573Z,82.87
2019-02-05T20:52:22.079Z,89.93
2019-02-05T20:54:51.929Z,91.47
2019-02-05T20:57:21.436Z,93.63
2019-02-05T20:59:52.530Z,91.87
2019-02-05T21:02:22.468Z,92.17
2019-02-05T21:04:54.611Z,97.80
2019-02-05T21:07:24.155Z,87.03
2019-02-05T21:09:54.029Z,88.77
2019-02-05T21:12:23.650Z,99.37
2019-02-05T21:14:53.654Z,104.93
2019-02-05T21:17:23.206Z,86.50
2019-02-05T21:19:52.853Z,109.20
2019-02-05T21:22:22.485Z,108.33
2019-02-05T21:24:52.184Z,114.57
2019-02-05T21:27:21.803Z,122.67
2019-02-05T21:29:51.734Z,109.17
2019-02-05T21:32:21.903Z,110.93
2019-02-05T21:34:51.365Z,123.67
2019-02-05T21:37:22.442Z,148.63
2019-02-05T21:40:02.107Z,145.17
2019-02-05T21:42:23.447Z,111.27
2019-02-05T21:44:53.759Z,105.30
2019-02-05T21:47:23.396Z,98.70
2019-02-05T21:49:52.965Z,107.23
2019-02-05T21:52:22.688Z,102.90
2019-02-05T21:54:52.580Z,112.77
2019-02-05T21:57:24.372Z,97.43
2019-02-05T21:59:56.434Z,104.60
2019-02-05T22:02:26.279Z,101.87
2019-02-05T22:04:55.792Z,118.17
2019-02-05T22:07:25.669Z,102.37
2019-02-05T22:09:55.177Z,107.53
2019-02-05T22:12:24.826Z,108.57
2019-02-05T22:14:54.321Z,100.03
2019-02-05T22:17:24.402Z,97.67
2019-02-05T22:19:53.888Z,104.67
2019-02-05T22:22:23.527Z,100.13
2019-02-05T22:24:53.100Z,100.77
2019-02-05T22:27:22.727Z,104.00
2019-02-05T22:29:52.390Z,97.50
2019-02-05T22:32:22.510Z,102.07
2019-02-05T22:34:51.995Z,103.17
2019-02-05T22:37:21.544Z,89.67
2019-02-05T22:39:51.640Z,98.27
2019-02-05T22:42:21.158Z,92.77
2019-02-05T22:44:52.066Z,97.43
2019-02-05T22:47:21.583Z,101.33
2019-02-05T22:49:51.131Z,101.17
2019-02-05T22:52:22.204Z,98.40
2019-02-05T22:54:51.740Z,104.17
2019-02-05T22:57:23.245Z,97.27
2019-02-05T22:59:53.119Z,110.27
2019-02-05T23:02:23.980Z,110.77
2019-02-05T23:05:13.894Z,100.07
2019-02-05T23:07:43.395Z,98.90
2019-02-05T23:10:43.048Z,102.03
2019-02-05T23:13:15.519Z,100.10
2019-02-05T23:15:47.250Z,97.30
2019-02-05T23:18:17.867Z,90.03
2019-02-05T23:20:49.715Z,90.00
2019-02-05T23:23:21.306Z,93.87
2019-02-05T23:25:50.846Z,102.20
2019-02-05T23:28:23.137Z,95.27
2019-02-05T23:30:52.974Z,95.23
2019-02-05T23:33:22.509Z,87.67
2019-02-05T23:35:53.109Z,91.23
2019-02-05T23:38:29.408Z,90.13
2019-02-05T23:40:54.575Z,85.03
2019-02-05T23:43:24.121Z,89.07
2019-02-05T23:46:01.323Z,96.17
2019-02-05T23:48:25.296Z,88.67
2019-02-05T23:50:54.793Z,93.70
2019-02-05T23:53:24.649Z,88.50
2019-02-05T23:55:54.178Z,107.70
2019-02-05T23:58:23.769Z,111.23
